Time;durP1;ratioP1;P1;durP2;ratioP2;P2;SDS_P1;SDS_P2;PMS_P1;PMS_P2;Temp;Humidity;BMP_temperature;BMP_pressure;BME280_temperature;BME280_humidity;BME280_pressure;Samples;Min_cycle;Max_cycle;Signal;HPM_P1;HPM_P2
2024/04/15 00:01:36;;;;;;;;;;;20.10;53.50;;;;;;5295936;26;87802;-40
2024/04/15 00:04:02;;;;;;;;;;;20.10;53.50;;;;;;5275809;26;85353;-39
2024/04/15 00:06:27;;;;;;;;;;;20.10;53.50;;;;;;5286405;26;85371;-39
2024/04/15 00:08:53;;;;;;;;;;;20.10;53.50;;;;;;5289143;26;85667;-39
2024/04/15 00:11:18;;;;;;;;;;;20.10;53.40;;;;;;5288917;26;86561;-39
2024/04/15 00:13:44;;;;;;;;;;;20.10;53.30;;;;;;5292762;26;87144;-39
2024/04/15 00:16:10;;;;;;;;;;;20.10;53.50;;;;;;5271515;26;85405;-39
2024/04/15 00:18:36;;;;;;;;;;;20.00;53.40;;;;;;5296311;26;85574;-39
2024/04/15 00:21:10;;;;;;;;;;;20.00;53.40;;;;;;5275099;26;85343;-38
2024/04/15 00:23:35;;;;;;;;;;;20.00;53.50;;;;;;5284030;26;87559;-39
2024/04/15 00:26:01;;;;;;;;;;;20.00;53.40;;;;;;5277180;26;86163;-39
2024/04/15 00:28:27;;;;;;;;;;;20.00;53.40;;;;;;5275585;26;87087;-38
2024/04/15 00:30:53;;;;;;;;;;;19.90;53.40;;;;;;5282380;26;86482;-38
2024/04/15 00:33:19;;;;;;;;;;;19.90;53.30;;;;;;5271037;26;86991;-38
2024/04/15 00:35:45;;;;;;;;;;;19.80;53.40;;;;;;5285853;26;85496;-38
2024/04/15 00:38:11;;;;;;;;;;;19.90;53.30;;;;;;5272514;26;86232;-38
2024/04/15 00:40:36;;;;;;;;;;;19.90;53.30;;;;;;5285400;26;87104;-38
2024/04/15 00:43:02;;;;;;;;;;;19.80;53.20;;;;;;5289018;26;84605;-38
2024/04/15 00:45:29;;;;;;;;;;;19.80;53.20;;;;;;5268927;26;85183;-38
2024/04/15 00:47:55;;;;;;;;;;;19.80;53.30;;;;;;5292866;26;87048;-38
2024/04/15 00:50:21;;;;;;;;;;;19.80;53.20;;;;;;5271666;26;86603;-38
2024/04/15 00:52:47;;;;;;;;;;;19.80;53.30;;;;;;5276726;26;85657;-38
2024/04/15 00:55:13;;;;;;;;;;;19.80;53.30;;;;;;5279258;26;85546;-38
2024/04/15 00:57:40;;;;;;;;;;;19.80;53.20;;;;;;5263413;26;85351;-38
2024/04/15 01:00:06;;;;;;;;;;;19.70;53.10;;;;;;5291605;26;87127;-39
2024/04/15 01:02:32;;;;;;;;;;;19.70;53.20;;;;;;5265944;26;85324;-39
2024/04/15 01:04:58;;;;;;;;;;;19.70;53.20;;;;;;5288252;26;85666;-39
2024/04/15 01:07:23;;;;;;;;;;;19.60;53.10;;;;;;5277390;26;85531;-39
2024/04/15 01:09:49;;;;;;;;;;;19.60;53.10;;;;;;5276903;26;85279;-39
2024/04/15 01:12:15;;;;;;;;;;;19.60;53.20;;;;;;5289374;26;86538;-39
2024/04/15 01:14:40;;;;;;;;;;;19.60;53.30;;;;;;5271995;26;86616;-39
2024/04/15 01:17:06;;;;;;;;;;;19.60;53.20;;;;;;5282225;26;86309;-38
2024/04/15 01:19:31;;;;;;;;;;;19.60;53.20;;;;;;5281219;26;85879;-38
2024/04/15 01:21:57;;;;;;;;;;;19.50;53.10;;;;;;5289489;26;85311;-38
2024/04/15 01:24:22;;;;;;;;;;;19.50;53.20;;;;;;5289663;26;87425;-39
2024/04/15 01:26:48;;;;;;;;;;;19.50;53.20;;;;;;5266545;26;86093;-38
2024/04/15 01:29:14;;;;;;;;;;;19.50;53.10;;;;;;5292424;26;85379;-39
2024/04/15 01:31:39;;;;;;;;;;;19.50;53.10;;;;;;5270782;26;84728;-39
2024/04/15 01:34:05;;;;;;;;;;;19.40;53.10;;;;;;5282380;26;85635;-39
2024/04/15 01:36:30;;;;;;;;;;;19.40;53.10;;;;;;5281574;26;85875;-39
2024/04/15 01:38:56;;;;;;;;;;;19.40;53.10;;;;;;5279033;26;88261;-39
2024/04/15 01:41:22;;;;;;;;;;;19.40;53.10;;;;;;5293326;26;85260;-39
2024/04/15 01:43:47;;;;;;;;;;;19.40;53.20;;;;;;5269446;26;85757;-38
2024/04/15 01:46:13;;;;;;;;;;;19.40;53.10;;;;;;5277647;26;85869;-38
2024/04/15 01:48:38;;;;;;;;;;;19.40;53.10;;;;;;5282084;26;85404;-39
2024/04/15 01:51:04;;;;;;;;;;;19.30;53.00;;;;;;5274723;26;85762;-38
2024/04/15 01:53:29;;;;;;;;;;;19.30;53.00;;;;;;5292571;26;86070;-38
2024/04/15 01:55:55;;;;;;;;;;;19.30;53.00;;;;;;5270733;26;84676;-38
2024/04/15 01:58:21;;;;;;;;;;;19.30;53.00;;;;;;5291950;26;87196;-39
2024/04/15 02:00:46;;;;;;;;;;;19.20;53.00;;;;;;5276709;26;87251;-38
2024/04/15 02:03:12;;;;;;;;;;;19.20;53.00;;;;;;5287915;26;86637;-39
2024/04/15 02:05:37;;;;;;;;;;;19.20;53.00;;;;;;5284680;26;86914;-39
2024/04/15 02:08:03;;;;;;;;;;;19.20;53.00;;;;;;5272692;26;87300;-38
2024/04/15 02:10:28;;;;;;;;;;;19.10;52.90;;;;;;5293852;26;86605;-38
2024/04/15 02:12:54;;;;;;;;;;;19.10;53.00;;;;;;5276245;26;86958;-38
2024/04/15 02:15:20;;;;;;;;;;;19.10;53.00;;;;;;5295532;26;85252;-39
2024/04/15 02:17:45;;;;;;;;;;;19.10;53.00;;;;;;5293399;26;87286;-39
2024/04/15 02:20:11;;;;;;;;;;;19.10;53.00;;;;;;5281491;26;84859;-38
2024/04/15 02:22:36;;;;;;;;;;;19.10;52.90;;;;;;5301506;26;85881;-39
2024/04/15 02:25:03;;;;;;;;;;;19.00;53.00;;;;;;5280462;26;85852;-38
2024/04/15 02:27:35;;;;;;;;;;;19.00;53.00;;;;;;5286766;26;86612;-38
2024/04/15 02:30:04;;;;;;;;;;;19.00;53.00;;;;;;5287178;26;86092;-39
2024/04/15 02:32:30;;;;;;;;;;;19.00;53.00;;;;;;5285826;26;86894;-38
2024/04/15 02:34:55;;;;;;;;;;;19.00;53.00;;;;;;5290891;26;85280;-39
2024/04/15 02:37:21;;;;;;;;;;;18.90;53.10;;;;;;5267742;26;85468;-39
2024/04/15 02:39:46;;;;;;;;;;;18.90;53.00;;;;;;5281876;26;86362;-38
2024/04/15 02:42:12;;;;;;;;;;;18.90;53.10;;;;;;5275164;26;86142;-39
2024/04/15 02:44:37;;;;;;;;;;;18.90;53.00;;;;;;5281943;26;84979;-39
2024/04/15 02:47:03;;;;;;;;;;;18.90;53.00;;;;;;5285957;26;85566;-39
2024/04/15 02:49:29;;;;;;;;;;;18.90;53.00;;;;;;5269191;26;85636;-39
2024/04/15 02:51:55;;;;;;;;;;;18.80;53.10;;;;;;5289946;26;87974;-38
2024/04/15 02:54:20;;;;;;;;;;;18.80;52.90;;;;;;5277895;26;85327;-38
2024/04/15 02:56:46;;;;;;;;;;;18.80;53.00;;;;;;5276378;26;86455;-39
2024/04/15 02:59:11;;;;;;;;;;;18.80;52.90;;;;;;5297178;26;87150;-39
2024/04/15 03:01:37;;;;;;;;;;;18.80;53.10;;;;;;5278754;26;85630;-38
2024/04/15 03:04:02;;;;;;;;;;;18.70;53.00;;;;;;5299122;26;87215;-38
2024/04/15 03:06:28;;;;;;;;;;;18.70;53.00;;;;;;5286368;26;85191;-38
2024/04/15 03:08:54;;;;;;;;;;;18.70;53.10;;;;;;5283379;26;86693;-38
2024/04/15 03:11:19;;;;;;;;;;;18.70;53.10;;;;;;5279473;26;87018;-39
2024/04/15 03:13:46;;;;;;;;;;;18.70;53.00;;;;;;5282992;26;85298;-39
2024/04/15 03:16:11;;;;;;;;;;;18.70;53.00;;;;;;5299678;26;86103;-39
2024/04/15 03:18:37;;;;;;;;;;;18.60;53.00;;;;;;5278422;26;86203;-39
2024/04/15 03:21:06;;;;;;;;;;;18.60;53.00;;;;;;5290572;26;85280;-38
2024/04/15 03:23:32;;;;;;;;;;;18.60;53.00;;;;;;5268051;26;86420;-38
2024/04/15 03:25:57;;;;;;;;;;;18.60;53.00;;;;;;5279446;26;85251;-38
2024/04/15 03:28:23;;;;;;;;;;;18.60;53.00;;;;;;5277637;26;86742;-38
2024/04/15 03:30:48;;;;;;;;;;;18.60;53.10;;;;;;5277500;26;85861;-39
2024/04/15 03:33:14;;;;;;;;;;;18.50;52.90;;;;;;5287344;26;84732;-39
2024/04/15 03:35:39;;;;;;;;;;;18.50;53.00;;;;;;5273221;26;86269;-39
2024/04/15 03:38:05;;;;;;;;;;;18.50;52.90;;;;;;5291552;26;88042;-38
2024/04/15 03:40:31;;;;;;;;;;;18.50;52.90;;;;;;5279884;26;86504;-39
2024/04/15 03:42:56;;;;;;;;;;;18.40;52.80;;;;;;5284689;26;87293;-38
2024/04/15 03:45:22;;;;;;;;;;;18.40;53.20;;;;;;5302045;26;85347;-38
2024/04/15 03:47:47;;;;;;;;;;;18.40;53.00;;;;;;5270932;26;85506;-38
2024/04/15 03:50:13;;;;;;;;;;;18.40;53.00;;;;;;5286989;26;87141;-38
2024/04/15 03:52:39;;;;;;;;;;;18.40;52.90;;;;;;5287770;26;85191;-39
2024/04/15 03:55:04;;;;;;;;;;;18.40;53.00;;;;;;5276648;26;85456;-38
2024/04/15 03:57:30;;;;;;;;;;;18.40;52.90;;;;;;5297056;26;86588;-38
2024/04/15 03:59:55;;;;;;;;;;;18.30;52.90;;;;;;5266976;26;85268;-38
2024/04/15 04:02:21;;;;;;;;;;;18.30;52.90;;;;;;5288158;26;85606;-39
2024/04/15 04:04:47;;;;;;;;;;;18.30;53.00;;;;;;5283006;26;86708;-39
2024/04/15 04:07:12;;;;;;;;;;;18.30;52.90;;;;;;5286837;26;85983;-38
2024/04/15 04:09:38;;;;;;;;;;;18.30;53.00;;;;;;5288430;26;86963;-38
2024/04/15 04:12:04;;;;;;;;;;;18.30;52.90;;;;;;5266805;26;85758;-39
2024/04/15 04:14:30;;;;;;;;;;;18.30;52.90;;;;;;5295682;26;86644;-39
2024/04/15 04:16:55;;;;;;;;;;;18.20;53.60;;;;;;5275095;26;86052;-39
2024/04/15 04:19:25;;;;;;;;;;;18.20;52.90;;;;;;5289207;26;86295;-39
2024/04/15 04:21:51;;;;;;;;;;;18.20;53.00;;;;;;5290576;26;86627;-39
2024/04/15 04:24:16;;;;;;;;;;;18.20;52.90;;;;;;5278637;26;85815;-39
2024/04/15 04:26:42;;;;;;;;;;;18.20;52.90;;;;;;5285874;26;86163;-39
2024/04/15 04:29:07;;;;;;;;;;;18.20;52.90;;;;;;5272772;26;87039;-39
2024/04/15 04:31:33;;;;;;;;;;;18.10;53.00;;;;;;5289095;26;85256;-39
2024/04/15 04:33:59;;;;;;;;;;;18.10;53.00;;;;;;5289110;26;85432;-39
2024/04/15 04:36:25;;;;;;;;;;;18.10;52.90;;;;;;5285914;26;87056;-39
2024/04/15 04:38:51;;;;;;;;;;;18.10;53.00;;;;;;5297595;26;86304;-39
2024/04/15 04:41:17;;;;;;;;;;;18.10;53.00;;;;;;5269261;26;86487;-39
2024/04/15 04:43:42;;;;;;;;;;;18.10;53.00;;;;;;5275240;26;86899;-39
2024/04/15 04:46:09;;;;;;;;;;;18.10;53.00;;;;;;5282550;26;84658;-39
2024/04/15 04:48:34;;;;;;;;;;;18.00;52.90;;;;;;5275254;26;85839;-38
2024/04/15 04:51:10;;;;;;;;;;;18.00;53.00;;;;;;5285999;26;85243;-39
2024/04/15 04:53:36;;;;;;;;;;;18.00;53.10;;;;;;5273251;26;86205;-39
2024/04/15 04:56:10;;;;;;;;;;;18.00;53.10;;;;;;5290159;26;87170;-39
2024/04/15 04:58:36;;;;;;;;;;;18.00;53.10;;;;;;5267569;26;86214;-40
2024/04/15 05:01:15;;;;;;;;;;;17.90;53.00;;;;;;5281870;26;86467;-38
2024/04/15 05:03:42;;;;;;;;;;;17.90;53.00;;;;;;5287403;26;86308;-38
2024/04/15 05:06:07;;;;;;;;;;;17.90;53.10;;;;;;5273017;26;85350;-39
2024/04/15 05:08:34;;;;;;;;;;;17.90;53.10;;;;;;5294630;26;85783;-39
2024/04/15 05:10:59;;;;;;;;;;;17.90;53.20;;;;;;5281638;26;84569;-39
2024/04/15 05:13:25;;;;;;;;;;;17.90;53.20;;;;;;5295257;26;85499;-39
2024/04/15 05:15:50;;;;;;;;;;;17.90;53.20;;;;;;5278676;26;86960;-39
2024/04/15 05:18:16;;;;;;;;;;;17.80;53.10;;;;;;5283428;26;86650;-39
2024/04/15 05:20:41;;;;;;;;;;;17.80;53.10;;;;;;5295890;26;86724;-39
2024/04/15 05:23:07;;;;;;;;;;;17.80;53.20;;;;;;5278763;26;85638;-39
2024/04/15 05:25:32;;;;;;;;;;;17.80;53.20;;;;;;5298361;26;86060;-38
2024/04/15 05:27:58;;;;;;;;;;;17.80;53.20;;;;;;5276216;26;85980;-38
2024/04/15 05:30:23;;;;;;;;;;;17.80;53.20;;;;;;5268799;26;87052;-39
2024/04/15 05:32:49;;;;;;;;;;;17.80;53.30;;;;;;5296757;26;85532;-39
2024/04/15 05:35:15;;;;;;;;;;;17.80;53.20;;;;;;5283741;26;86169;-39
2024/04/15 05:37:40;;;;;;;;;;;17.80;53.30;;;;;;5293952;26;85731;-39
2024/04/15 05:40:06;;;;;;;;;;;17.80;53.30;;;;;;5273628;26;85273;-39
2024/04/15 05:42:32;;;;;;;;;;;17.80;53.30;;;;;;5288627;26;86912;-38
2024/04/15 05:44:57;;;;;;;;;;;17.80;53.30;;;;;;5275263;26;86478;-39
2024/04/15 05:47:23;;;;;;;;;;;17.80;53.30;;;;;;5277448;26;86726;-39
2024/04/15 05:49:49;;;;;;;;;;;17.80;53.30;;;;;;5286632;26;85995;-39
2024/04/15 05:52:15;;;;;;;;;;;17.80;53.40;;;;;;5284710;26;85367;-40
2024/04/15 05:54:40;;;;;;;;;;;17.70;53.40;;;;;;5291633;26;87132;-39
2024/04/15 05:57:06;;;;;;;;;;;17.80;53.50;;;;;;5288233;26;86436;-38
2024/04/15 05:59:32;;;;;;;;;;;17.80;53.50;;;;;;5280399;26;85328;-38
2024/04/15 06:01:57;;;;;;;;;;;17.80;53.50;;;;;;5295147;26;87036;-39
2024/04/15 06:04:23;;;;;;;;;;;17.80;53.50;;;;;;5270852;26;85295;-39
2024/04/15 06:06:49;;;;;;;;;;;17.70;53.50;;;;;;5292853;26;86693;-39
2024/04/15 06:09:14;;;;;;;;;;;17.70;53.50;;;;;;5265131;26;87125;-39
2024/04/15 06:11:40;;;;;;;;;;;17.70;53.50;;;;;;5278757;26;85211;-39
2024/04/15 06:14:06;;;;;;;;;;;17.70;53.50;;;;;;5290745;26;86900;-39
2024/04/15 06:16:31;;;;;;;;;;;17.70;53.60;;;;;;5288908;26;86253;-39
2024/04/15 06:18:57;;;;;;;;;;;17.70;53.70;;;;;;5289662;26;85338;-39
2024/04/15 06:21:22;;;;;;;;;;;17.70;53.70;;;;;;5282554;26;85763;-39
2024/04/15 06:23:48;;;;;;;;;;;17.70;53.80;;;;;;5282702;26;85479;-39
2024/04/15 06:26:13;;;;;;;;;;;17.70;53.70;;;;;;5285129;26;85255;-39
2024/04/15 06:28:39;;;;;;;;;;;17.70;53.80;;;;;;5283507;26;85574;-39
2024/04/15 06:31:04;;;;;;;;;;;17.70;53.80;;;;;;5299601;26;86115;-39
2024/04/15 06:33:30;;;;;;;;;;;17.70;53.80;;;;;;5272140;26;87670;-38
2024/04/15 06:35:55;;;;;;;;;;;17.70;53.90;;;;;;5288780;26;85400;-39
2024/04/15 06:38:21;;;;;;;;;;;17.70;54.50;;;;;;5275169;26;86510;-39
2024/04/15 06:40:46;;;;;;;;;;;17.70;53.90;;;;;;5288220;26;85838;-39
2024/04/15 06:43:12;;;;;;;;;;;17.70;53.90;;;;;;5281022;26;85257;-39
2024/04/15 06:45:38;;;;;;;;;;;17.70;53.90;;;;;;5274666;26;85737;-39
2024/04/15 06:48:04;;;;;;;;;;;17.70;53.90;;;;;;5285323;26;86472;-39
2024/04/15 06:50:29;;;;;;;;;;;17.70;53.90;;;;;;5279466;26;85303;-39
2024/04/15 06:52:55;;;;;;;;;;;17.70;53.90;;;;;;5279766;26;85432;-39
2024/04/15 06:55:20;;;;;;;;;;;17.70;53.90;;;;;;5293291;26;88092;-39
2024/04/15 06:57:46;;;;;;;;;;;17.70;53.90;;;;;;5275826;26;86258;-39
2024/04/15 07:00:12;;;;;;;;;;;17.70;54.00;;;;;;5279109;26;87044;-39
2024/04/15 07:02:37;;;;;;;;;;;17.70;54.00;;;;;;5268165;26;85207;-39
2024/04/15 07:05:03;;;;;;;;;;;17.70;54.00;;;;;;5288079;26;86722;-39
2024/04/15 07:07:29;;;;;;;;;;;17.70;54.00;;;;;;5285121;26;87009;-39
2024/04/15 07:09:55;;;;;;;;;;;17.70;54.10;;;;;;5284443;26;86257;-39
2024/04/15 07:12:20;;;;;;;;;;;17.70;54.10;;;;;;5295864;26;85027;-39
2024/04/15 07:14:46;;;;;;;;;;;17.70;54.10;;;;;;5273616;26;86989;-39
2024/04/15 07:17:11;;;;;;;;;;;17.70;54.10;;;;;;5286592;26;85287;-39
2024/04/15 07:19:37;;;;;;;;;;;17.70;54.10;;;;;;5279657;26;87645;-39
2024/04/15 07:22:03;;;;;;;;;;;17.70;54.20;;;;;;5284562;26;85694;-38
2024/04/15 07:24:29;;;;;;;;;;;17.70;54.20;;;;;;5282976;26;86062;-39
2024/04/15 07:26:55;;;;;;;;;;;17.70;54.20;;;;;;5274027;26;86086;-40
2024/04/15 07:29:21;;;;;;;;;;;17.70;54.20;;;;;;5294234;26;85340;-40
2024/04/15 07:31:46;;;;;;;;;;;17.70;54.30;;;;;;5279072;26;86762;-39
2024/04/15 07:34:12;;;;;;;;;;;17.70;54.20;;;;;;5288986;26;86919;-39
2024/04/15 07:36:37;;;;;;;;;;;17.70;54.30;;;;;;5287712;26;84522;-38
2024/04/15 07:39:03;;;;;;;;;;;17.70;54.30;;;;;;5281938;26;85334;-38
2024/04/15 07:41:28;;;;;;;;;;;17.70;54.20;;;;;;5299341;26;85641;-39
2024/04/15 07:43:54;;;;;;;;;;;17.70;54.30;;;;;;5272301;26;86161;-39
2024/04/15 07:46:20;;;;;;;;;;;17.70;54.20;;;;;;5290758;26;87065;-39
2024/04/15 07:48:45;;;;;;;;;;;17.70;54.20;;;;;;5277930;26;85376;-39
2024/04/15 07:51:11;;;;;;;;;;;17.80;54.20;;;;;;5275203;26;85686;-39
2024/04/15 07:53:36;;;;;;;;;;;17.80;54.30;;;;;;5302747;26;85685;-39
2024/04/15 07:56:02;;;;;;;;;;;17.80;54.30;;;;;;5272408;26;85525;-38
2024/04/15 07:58:30;;;;;;;;;;;17.70;54.30;;;;;;5286280;26;86631;-39
2024/04/15 08:00:56;;;;;;;;;;;17.80;54.30;;;;;;5285540;26;86331;-38
2024/04/15 08:03:22;;;;;;;;;;;17.80;54.30;;;;;;5283266;26;85232;-39
2024/04/15 08:05:47;;;;;;;;;;;17.80;54.30;;;;;;5298405;26;87062;-38
2024/04/15 08:08:13;;;;;;;;;;;17.80;54.30;;;;;;5283487;26;86462;-38
2024/04/15 08:10:38;;;;;;;;;;;17.80;54.30;;;;;;5296782;26;87437;-39
2024/04/15 08:13:04;;;;;;;;;;;17.80;54.40;;;;;;5274114;26;87169;-38
2024/04/15 08:15:31;;;;;;;;;;;17.80;54.90;;;;;;5285140;26;85289;-38
2024/04/15 08:17:57;;;;;;;;;;;17.80;54.40;;;;;;5286610;26;86545;-39
2024/04/15 08:20:23;;;;;;;;;;;17.80;54.50;;;;;;5276441;26;86165;-39
2024/04/15 08:22:49;;;;;;;;;;;17.80;54.40;;;;;;5298164;26;85672;-39
2024/04/15 08:25:16;;;;;;;;;;;17.80;54.50;;;;;;5273282;26;85275;-39
2024/04/15 08:27:42;;;;;;;;;;;17.80;54.40;;;;;;5290440;26;85308;-39
2024/04/15 08:30:08;;;;;;;;;;;17.80;54.50;;;;;;5283683;26;86600;-39
2024/04/15 08:32:34;;;;;;;;;;;17.80;54.50;;;;;;5277474;26;86821;-38
2024/04/15 08:34:59;;;;;;;;;;;17.80;54.50;;;;;;5295027;26;85306;-38
2024/04/15 08:37:25;;;;;;;;;;;17.80;54.40;;;;;;5275582;26;87017;-39
2024/04/15 08:39:50;;;;;;;;;;;17.80;54.40;;;;;;5290925;26;85735;-39
2024/04/15 08:42:19;;;;;;;;;;;17.90;54.40;;;;;;5289358;26;85283;-38
2024/04/15 08:44:45;;;;;;;;;;;17.90;54.40;;;;;;5281355;26;86996;-39
2024/04/15 08:47:12;;;;;;;;;;;17.90;54.40;;;;;;5294025;26;85356;-39
2024/04/15 08:49:39;;;;;;;;;;;17.90;54.40;;;;;;5272468;26;85440;-39
2024/04/15 08:52:05;;;;;;;;;;;17.90;54.40;;;;;;5293304;26;87297;-38
2024/04/15 08:54:31;;;;;;;;;;;17.90;54.50;;;;;;5275702;26;85442;-39
2024/04/15 08:57:01;;;;;;;;;;;17.90;54.50;;;;;;5287028;26;86107;-38
2024/04/15 08:59:27;;;;;;;;;;;17.90;54.40;;;;;;5294441;26;86917;-39
2024/04/15 09:01:53;;;;;;;;;;;17.90;54.60;;;;;;5281654;26;85857;-39
2024/04/15 09:04:19;;;;;;;;;;;18.00;54.50;;;;;;5290676;26;86664;-38
2024/04/15 09:06:45;;;;;;;;;;;17.90;54.50;;;;;;5268291;26;85221;-38
2024/04/15 09:09:11;;;;;;;;;;;18.00;54.70;;;;;;5293936;26;86381;-39
2024/04/15 09:11:38;;;;;;;;;;;18.00;54.60;;;;;;5286606;26;87352;-39
2024/04/15 09:14:03;;;;;;;;;;;18.00;54.40;;;;;;5280926;26;84449;-38
2024/04/15 09:16:29;;;;;;;;;;;18.00;54.70;;;;;;5297440;26;85191;-39
2024/04/15 09:18:54;;;;;;;;;;;18.00;54.70;;;;;;5273791;26;86806;-39
2024/04/15 09:21:20;;;;;;;;;;;18.00;54.60;;;;;;5283588;26;86379;-38
2024/04/15 09:23:46;;;;;;;;;;;18.00;54.60;;;;;;5275704;26;87686;-38
2024/04/15 09:26:11;;;;;;;;;;;18.00;54.50;;;;;;5295671;26;88590;-39
2024/04/15 09:28:37;;;;;;;;;;;18.10;54.60;;;;;;5292154;26;85268;-39
2024/04/15 09:31:03;;;;;;;;;;;18.10;54.50;;;;;;5273502;26;86988;-38
2024/04/15 09:33:28;;;;;;;;;;;18.10;54.50;;;;;;5299203;26;85193;-39
2024/04/15 09:35:54;;;;;;;;;;;18.10;54.50;;;;;;5274965;26;85517;-39
2024/04/15 09:38:20;;;;;;;;;;;18.20;54.60;;;;;;5287471;26;86148;-38
2024/04/15 09:40:46;;;;;;;;;;;18.20;54.50;;;;;;5289407;26;85818;-38
2024/04/15 09:43:12;;;;;;;;;;;18.20;54.50;;;;;;5278456;26;86650;-39
2024/04/15 09:45:37;;;;;;;;;;;18.20;54.50;;;;;;5292697;26;87880;-39
2024/04/15 09:48:03;;;;;;;;;;;18.20;54.60;;;;;;5277688;26;85268;-38
2024/04/15 09:50:29;;;;;;;;;;;18.30;54.60;;;;;;5294763;26;86853;-39
2024/04/15 09:52:59;;;;;;;;;;;18.30;54.50;;;;;;5285418;26;85280;-39
2024/04/15 09:55:36;;;;;;;;;;;18.30;54.60;;;;;;5285096;26;87418;-39
2024/04/15 09:58:03;;;;;;;;;;;18.30;54.60;;;;;;5294861;26;87358;-38
2024/04/15 10:00:29;;;;;;;;;;;18.30;54.70;;;;;;5277209;26;85593;-39
2024/04/15 10:03:08;;;;;;;;;;;18.40;54.80;;;;;;5295684;26;86312;-39
2024/04/15 10:05:38;;;;;;;;;;;18.40;54.90;;;;;;5267236;26;86216;-38
2024/04/15 10:08:05;;;;;;;;;;;18.40;55.00;;;;;;5292261;26;85256;-38
2024/04/15 10:10:31;;;;;;;;;;;18.40;55.00;;;;;;5288890;26;86580;-38
2024/04/15 10:13:04;;;;;;;;;;;18.50;55.00;;;;;;5270495;26;85354;-39
2024/04/15 10:15:30;;;;;;;;;;;18.50;55.20;;;;;;5281692;26;86178;-39
2024/04/15 10:18:03;;;;;;;;;;;18.50;55.30;;;;;;5283636;26;85562;-39
2024/04/15 10:20:30;;;;;;;;;;;18.50;55.10;;;;;;5297218;26;85247;-39
2024/04/15 10:22:56;;;;;;;;;;;18.50;55.10;;;;;;5277952;26;86478;-39
2024/04/15 10:25:21;;;;;;;;;;;18.50;55.10;;;;;;5288708;26;85508;-39
2024/04/15 10:27:47;;;;;;;;;;;18.60;55.20;;;;;;5286345;26;84976;-39
2024/04/15 10:30:19;;;;;;;;;;;18.60;55.10;;;;;;5275864;26;86167;-39
2024/04/15 10:32:47;;;;;;;;;;;18.60;55.10;;;;;;5296059;26;85197;-39
2024/04/15 10:35:22;;;;;;;;;;;18.60;55.20;;;;;;5282048;26;86683;-39
2024/04/15 10:37:51;;;;;;;;;;;18.60;55.10;;;;;;5288592;26;87062;-39
2024/04/15 10:40:20;;;;;;;;;;;18.70;55.10;;;;;;5290601;26;85667;-39
2024/04/15 10:42:46;;;;;;;;;;;18.70;55.20;;;;;;5285582;26;85400;-39
2024/04/15 10:45:15;;;;;;;;;;;18.70;55.10;;;;;;5285955;26;87086;-39
2024/04/15 10:47:41;;;;;;;;;;;18.70;55.10;;;;;;5271566;26;86087;-39
2024/04/15 10:50:08;;;;;;;;;;;18.80;55.10;;;;;;5302218;26;85431;-38
2024/04/15 10:52:34;;;;;;;;;;;18.80;55.10;;;;;;5283813;26;86131;-39
2024/04/15 10:54:59;;;;;;;;;;;18.80;55.10;;;;;;5293416;26;85953;-39
2024/04/15 10:57:25;;;;;;;;;;;18.80;55.10;;;;;;5287118;26;88362;-39
2024/04/15 10:59:50;;;;;;;;;;;18.90;55.20;;;;;;5279209;26;87109;-38
2024/04/15 11:02:16;;;;;;;;;;;18.90;55.20;;;;;;5296127;26;86517;-39
2024/04/15 11:04:41;;;;;;;;;;;18.90;55.00;;;;;;5276076;26;86939;-39
2024/04/15 11:07:07;;;;;;;;;;;19.00;55.10;;;;;;5288803;26;85292;-39
2024/04/15 11:09:34;;;;;;;;;;;19.00;55.00;;;;;;5294096;26;86549;-38
2024/04/15 11:12:03;;;;;;;;;;;19.00;55.20;;;;;;5279328;26;87450;-39
2024/04/15 11:14:30;;;;;;;;;;;19.00;54.90;;;;;;5305675;26;85093;-39
2024/04/15 11:16:56;;;;;;;;;;;19.10;55.10;;;;;;5271354;26;86701;-39
2024/04/15 11:19:23;;;;;;;;;;;19.10;55.00;;;;;;5293249;26;85924;-39
2024/04/15 11:21:48;;;;;;;;;;;19.10;54.90;;;;;;5276238;26;85568;-39
2024/04/15 11:24:14;;;;;;;;;;;19.20;54.90;;;;;;5292164;26;87041;-39
2024/04/15 11:26:44;;;;;;;;;;;19.20;55.10;;;;;;5294781;26;85840;-40
2024/04/15 11:29:11;;;;;;;;;;;19.20;54.90;;;;;;5276442;26;86183;-39
2024/04/15 11:31:37;;;;;;;;;;;19.30;55.10;;;;;;5298384;26;87084;-39
2024/04/15 11:34:03;;;;;;;;;;;19.30;55.00;;;;;;5287016;26;87103;-38
2024/04/15 11:36:28;;;;;;;;;;;19.30;55.10;;;;;;5293858;26;85679;-39
2024/04/15 11:38:54;;;;;;;;;;;19.30;55.00;;;;;;5300470;26;85395;-39
2024/04/15 11:41:20;;;;;;;;;;;19.40;55.10;;;;;;5278575;26;85720;-39
2024/04/15 11:43:45;;;;;;;;;;;19.40;55.10;;;;;;5305139;26;85855;-40
2024/04/15 11:46:18;;;;;;;;;;;19.40;55.00;;;;;;5282963;26;85327;-39
2024/04/15 11:48:43;;;;;;;;;;;19.40;55.00;;;;;;5296092;26;86541;-39
2024/04/15 11:51:09;;;;;;;;;;;19.40;55.00;;;;;;5287100;26;86022;-39
2024/04/15 11:53:35;;;;;;;;;;;19.50;55.00;;;;;;5284614;26;85331;-39
2024/04/15 11:56:00;;;;;;;;;;;19.50;55.10;;;;;;5297800;26;85349;-39
2024/04/15 11:58:26;;;;;;;;;;;19.50;55.00;;;;;;5278235;26;86506;-39
2024/04/15 12:00:52;;;;;;;;;;;19.50;54.90;;;;;;5286732;26;85383;-39
2024/04/15 12:03:18;;;;;;;;;;;19.60;54.90;;;;;;5277710;26;87169;-39
2024/04/15 12:05:44;;;;;;;;;;;19.60;55.00;;;;;;5288651;26;84691;-39
2024/04/15 12:08:10;;;;;;;;;;;19.70;54.90;;;;;;5302479;26;85207;-39
2024/04/15 12:10:36;;;;;;;;;;;19.70;55.00;;;;;;5272391;26;86814;-39
2024/04/15 12:13:01;;;;;;;;;;;19.70;54.90;;;;;;5303212;26;86141;-39
2024/04/15 12:15:27;;;;;;;;;;;19.70;54.90;;;;;;5277457;26;87660;-39
2024/04/15 12:17:53;;;;;;;;;;;19.70;54.80;;;;;;5281234;26;86093;-39
2024/04/15 12:20:18;;;;;;;;;;;19.80;54.90;;;;;;5288701;26;85412;-39
2024/04/15 12:22:44;;;;;;;;;;;19.80;54.90;;;;;;5286536;26;86150;-39
2024/04/15 12:25:10;;;;;;;;;;;19.80;54.80;;;;;;5290828;26;85247;-39
2024/04/15 12:27:36;;;;;;;;;;;19.90;54.80;;;;;;5267482;26;85190;-39
2024/04/15 12:30:03;;;;;;;;;;;19.90;54.60;;;;;;5298834;26;85024;-38
2024/04/15 12:32:28;;;;;;;;;;;19.90;54.70;;;;;;5288634;26;85140;-39
2024/04/15 12:34:54;;;;;;;;;;;20.00;54.80;;;;;;5272845;26;86771;-39
2024/04/15 12:37:20;;;;;;;;;;;20.00;54.70;;;;;;5295001;26;87994;-39
2024/04/15 12:39:47;;;;;;;;;;;20.00;54.70;;;;;;5281978;26;86001;-39
2024/04/15 12:42:12;;;;;;;;;;;20.00;54.60;;;;;;5297997;26;86625;-39
2024/04/15 12:44:38;;;;;;;;;;;20.10;54.30;;;;;;5282699;26;86055;-39
2024/04/15 12:47:03;;;;;;;;;;;20.10;54.40;;;;;;5287850;26;86579;-39
2024/04/15 12:49:29;;;;;;;;;;;20.20;54.50;;;;;;5304571;26;85914;-39
2024/04/15 12:51:55;;;;;;;;;;;20.20;54.50;;;;;;5284775;26;85377;-39
2024/04/15 12:54:20;;;;;;;;;;;20.20;54.10;;;;;;5297101;26;85818;-39
2024/04/15 12:56:46;;;;;;;;;;;20.30;54.40;;;;;;5274568;26;86990;-39
2024/04/15 12:59:12;;;;;;;;;;;20.30;54.30;;;;;;5289252;26;85496;-39
2024/04/15 13:01:37;;;;;;;;;;;20.30;54.30;;;;;;5293159;26;87021;-39
2024/04/15 13:04:04;;;;;;;;;;;20.30;53.80;;;;;;5284272;26;85811;-38
2024/04/15 13:06:29;;;;;;;;;;;20.30;54.20;;;;;;5295793;26;86522;-39
2024/04/15 13:08:56;;;;;;;;;;;20.40;54.10;;;;;;5265341;26;87048;-39
2024/04/15 13:11:21;;;;;;;;;;;20.40;54.30;;;;;;5289660;26;86291;-39
2024/04/15 13:13:47;;;;;;;;;;;20.50;54.30;;;;;;5291590;26;86503;-39
2024/04/15 13:16:12;;;;;;;;;;;20.50;54.40;;;;;;5278207;26;85946;-39
2024/04/15 13:18:38;;;;;;;;;;;20.50;54.30;;;;;;5294871;26;84589;-39
2024/04/15 13:21:06;;;;;;;;;;;20.50;54.30;;;;;;5264999;26;85170;-39
2024/04/15 13:23:32;;;;;;;;;;;20.60;54.20;;;;;;5301317;26;87223;-38
2024/04/15 13:25:57;;;;;;;;;;;20.60;54.20;;;;;;5275191;26;88165;-39
2024/04/15 13:28:23;;;;;;;;;;;20.60;53.90;;;;;;5284278;26;85854;-39
2024/04/15 13:30:49;;;;;;;;;;;20.60;53.90;;;;;;5287594;26;85404;-41
2024/04/15 13:33:15;;;;;;;;;;;20.70;49.60;;;;;;5275888;26;86615;-42
2024/04/15 13:35:40;;;;;;;;;;;20.80;48.50;;;;;;5290383;26;86179;-43
2024/04/15 13:38:06;;;;;;;;;;;20.80;49.70;;;;;;5265330;26;86368;-41
2024/04/15 13:40:32;;;;;;;;;;;20.80;50.10;;;;;;5288376;26;87156;-40
2024/04/15 13:42:57;;;;;;;;;;;20.80;47.70;;;;;;5294489;26;84539;-41
2024/04/15 13:45:23;;;;;;;;;;;21.00;46.70;;;;;;5279975;26;86333;-42
2024/04/15 13:47:48;;;;;;;;;;;21.30;46.20;;;;;;5289805;26;85662;-41
2024/04/15 13:50:15;;;;;;;;;;;21.40;45.60;;;;;;5266233;26;87742;-43
2024/04/15 13:52:40;;;;;;;;;;;21.50;45.10;;;;;;5273816;26;87571;-42
2024/04/15 13:55:07;;;;;;;;;;;21.50;44.30;;;;;;5301143;26;86003;-43
2024/04/15 13:57:33;;;;;;;;;;;21.60;43.60;;;;;;5286622;26;85736;-38
2024/04/15 13:59:59;;;;;;;;;;;21.70;43.70;;;;;;5300506;26;85797;-44
2024/04/15 14:02:25;;;;;;;;;;;21.80;43.10;;;;;;5276422;26;86660;-39
2024/04/15 14:04:50;;;;;;;;;;;21.90;44.10;;;;;;5294312;26;85383;-43
2024/04/15 14:07:16;;;;;;;;;;;21.90;43.30;;;;;;5281278;26;86643;-39
2024/04/15 14:09:41;;;;;;;;;;;21.90;42.10;;;;;;5289735;26;85349;-41